Terminal Aerodrome Forecast
Issued by NWS St Louis, MO

Home | Current Version | Previous Version | Text Only | Print | Product List | Glossary On
Versions: 1 2 3 4 5 6 7 8 9 10 11 12 13 14
000
FTUS43 KLSX 011100
TAFCOU
TAF
KCOU 011140Z 0112/0212 15011KT P6SM BKN250
     FM011600 16015G25KT P6SM BKN250
     FM020300 17012KT P6SM BKN050 WS015/18045KT=

USA.gov is the U.S. government's official web portal to all federal, state and local government web resources and services.